Login to view products.
 
Thursday, November 26, 2020 (04:10 UTC)
Al Bateen Executive Airport
ICAO: OMAD
IATA: AZI
  • METAR OMAD 260400Z VRB02KT CAVOK 22/12 Q1018 BECMG 14010KT=
  • TAF OMAD 252300Z 2600/2706 08006KT CAVOK BECMG 2601/2603 14010KT BECMG 2613/2615 04006KT BECMG 2622/2700 14008KT=
D:\Input Parser\Destinations\Final\23\OMADL000623001005292968.txt
1
Last Updated:
Wind Dir/Speed:
Temperature:
Rel. Humidity:
Pressure:
Visibility: